Terminal Aerodrome Forecast
Issued by NWS North Platte, NE

Home | Current Version | Previous Version | Text Only | Print | Product List | Glossary On
Versions: 1 2 3 4 5 6 7 8 9 10 11 12 13 14 15 16 17 18 19
000
FTUS43 KLBF 190500
TAFLBF
TAF
KLBF 190520Z 1906/2006 17017G26KT P6SM BKN200
     FM190900 14008KT P6SM BKN200
     FM191100 VRB06KT P6SM BKN200
     FM191400 06010KT P6SM OVC150
     FM191800 06012G18KT P6SM OVC120
     FM200100 04009KT P6SM BKN250=

USA.gov is the U.S. government's official web portal to all federal, state and local government web resources and services.